Time;durP1;ratioP1;P1;durP2;ratioP2;P2;SDS_P1;SDS_P2;PMS_P1;PMS_P2;Temp;Humidity;BMP_temperature;BMP_pressure;BME280_temperature;BME280_humidity;BME280_pressure;Samples;Min_cycle;Max_cycle;Signal;HPM_P1;HPM_P2
2023/05/21 00:03:22;;;;;;;9.13;7.30;;;;;;;;;;12731956;23;20837;-86
2023/05/21 00:08:26;;;;;;;10.85;7.38;;;;;;;;;;12728162;23;20706;-86
2023/05/21 00:13:29;;;;;;;10.18;7.70;;;;;;;;;;12730305;23;20475;-85
2023/05/21 00:18:33;;;;;;;8.40;7.27;;;;;;;;;;12731025;23;20829;-86
2023/05/21 00:23:38;;;;;;;10.77;7.53;;;;;;;;;;12729416;23;20357;-85
2023/05/21 00:28:40;;;;;;;9.43;7.40;;;;;;;;;;12725094;23;20389;-86
2023/05/21 00:33:43;;;;;;;10.60;7.38;;;;;;;;;;12730802;23;20362;-85
2023/05/21 00:38:47;;;;;;;8.90;7.57;;;;;;;;;;12770129;23;20426;-85
2023/05/21 00:43:49;;;;;;;8.67;7.53;;;;;;;;;;12813504;23;20372;-85
2023/05/21 00:48:52;;;;;;;9.52;7.30;;;;;;;;;;12791580;23;20388;-86
2023/05/21 00:53:57;;;;;;;8.97;7.37;;;;;;;;;;12790463;23;20395;-87
2023/05/21 00:59:04;;;;;;;9.93;7.60;;;;;;;;;;12787971;23;20375;-87
2023/05/21 01:04:06;;;;;;;9.17;7.60;;;;;;;;;;12788601;23;20368;-86
2023/05/21 01:09:10;;;;;;;9.32;7.30;;;;;;;;;;12788485;23;20965;-86
2023/05/21 01:14:14;;;;;;;9.67;7.53;;;;;;;;;;12807169;23;20729;-86
2023/05/21 01:19:19;;;;;;;10.05;7.70;;;;;;;;;;12790927;23;20368;-87
2023/05/21 01:24:23;;;;;;;9.37;7.80;;;;;;;;;;12792524;23;20363;-86
2023/05/21 01:29:25;;;;;;;10.03;7.63;;;;;;;;;;12793906;23;20866;-87
2023/05/21 01:34:33;;;;;;;8.90;7.70;;;;;;;;;;12793007;23;20426;-86
2023/05/21 01:39:40;;;;;;;10.18;7.57;;;;;;;;;;12793310;23;20368;-86
2023/05/21 01:44:43;;;;;;;9.48;7.50;;;;;;;;;;12790673;23;20434;-86
2023/05/21 01:49:46;;;;;;;10.60;7.80;;;;;;;;;;12791578;23;20387;-86
2023/05/21 01:54:50;;;;;;;11.02;8.18;;;;;;;;;;12790647;23;20486;-86
2023/05/21 01:59:53;;;;;;;9.48;7.68;;;;;;;;;;12790986;23;20426;-86
2023/05/21 02:04:55;;;;;;;9.23;8.07;;;;;;;;;;12790445;23;20418;-86
2023/05/21 02:09:59;;;;;;;9.77;8.48;;;;;;;;;;12791539;23;20852;-86
2023/05/21 02:15:03;;;;;;;9.75;8.02;;;;;;;;;;12791050;23;20368;-87
2023/05/21 02:20:10;;;;;;;9.50;8.10;;;;;;;;;;12790909;23;20368;-86
2023/05/21 02:25:17;;;;;;;10.25;8.63;;;;;;;;;;12791051;23;20399;-86
2023/05/21 02:30:19;;;;;;;10.63;8.23;;;;;;;;;;12790264;23;20468;-86
2023/05/21 02:35:22;;;;;;;10.93;8.60;;;;;;;;;;12788060;23;20379;-87
2023/05/21 02:40:25;;;;;;;9.52;8.23;;;;;;;;;;12788535;23;20705;-86
2023/05/21 02:45:30;;;;;;;10.45;7.90;;;;;;;;;;12787006;23;20422;-87
2023/05/21 02:50:32;;;;;;;13.00;8.32;;;;;;;;;;12809711;23;20760;-86
2023/05/21 02:55:36;;;;;;;11.27;8.63;;;;;;;;;;12791215;23;20422;-86
2023/05/21 03:00:38;;;;;;;12.40;8.70;;;;;;;;;;12790445;23;20426;-86
2023/05/21 03:05:40;;;;;;;10.27;8.27;;;;;;;;;;12789367;23;20410;-86
2023/05/21 03:10:44;;;;;;;10.10;8.53;;;;;;;;;;12789000;23;20388;-85
2023/05/21 03:15:49;;;;;;;10.98;8.50;;;;;;;;;;12789814;23;20396;-86
2023/05/21 03:20:51;;;;;;;10.63;8.70;;;;;;;;;;12790354;23;20376;-87
2023/05/21 03:25:55;;;;;;;11.00;8.70;;;;;;;;;;12790766;23;20372;-86
2023/05/21 03:30:57;;;;;;;12.03;9.00;;;;;;;;;;12788979;23;20384;-86
2023/05/21 03:35:59;;;;;;;10.10;8.50;;;;;;;;;;12789283;23;20422;-87
2023/05/21 03:41:03;;;;;;;11.70;8.67;;;;;;;;;;12789916;23;20380;-86
2023/05/21 03:46:05;;;;;;;11.20;8.77;;;;;;;;;;12790838;23;20848;-86
2023/05/21 03:51:08;;;;;;;10.57;8.30;;;;;;;;;;12788439;23;20387;-86
2023/05/21 03:56:12;;;;;;;11.40;9.15;;;;;;;;;;12788499;23;20395;-87
2023/05/21 04:01:14;;;;;;;11.63;8.55;;;;;;;;;;12789335;23;20438;-86
2023/05/21 04:06:17;;;;;;;10.68;8.18;;;;;;;;;;12789538;23;20391;-86
2023/05/21 04:11:21;;;;;;;11.18;8.02;;;;;;;;;;12788626;23;20387;-86
2023/05/21 04:16:23;;;;;;;10.43;8.15;;;;;;;;;;12791204;23;20384;-85
2023/05/21 04:21:26;;;;;;;9.38;7.63;;;;;;;;;;12791782;23;20364;-86
2023/05/21 04:26:33;;;;;;;11.75;8.27;;;;;;;;;;12791384;23;20380;-85
2023/05/21 04:31:35;;;;;;;9.93;7.93;;;;;;;;;;12790978;23;20387;-86
2023/05/21 04:36:38;;;;;;;9.90;7.93;;;;;;;;;;12791161;23;20430;-86
2023/05/21 04:41:41;;;;;;;11.23;8.00;;;;;;;;;;12791877;23;20363;-86
2023/05/21 04:46:44;;;;;;;8.55;7.55;;;;;;;;;;12796207;23;20442;-86
2023/05/21 04:51:48;;;;;;;10.93;7.93;;;;;;;;;;12813521;23;20441;-86
2023/05/21 04:56:51;;;;;;;9.48;7.80;;;;;;;;;;12792152;23;20371;-86
2023/05/21 05:01:54;;;;;;;10.57;7.60;;;;;;;;;;12792455;23;20372;-86
2023/05/21 05:06:56;;;;;;;9.77;7.77;;;;;;;;;;12812157;23;20445;-85
2023/05/21 05:12:00;;;;;;;10.48;8.07;;;;;;;;;;12787741;23;20388;-86
2023/05/21 05:17:02;;;;;;;10.75;8.13;;;;;;;;;;12788361;23;20360;-86
2023/05/21 05:22:05;;;;;;;10.95;8.02;;;;;;;;;;12790215;23;20367;-86
2023/05/21 05:27:09;;;;;;;9.77;8.13;;;;;;;;;;12790703;23;20372;-86
2023/05/21 05:32:12;;;;;;;12.70;8.10;;;;;;;;;;12790420;23;20387;-86
2023/05/21 05:37:14;;;;;;;10.03;8.00;;;;;;;;;;12791742;23;20383;-86
2023/05/21 05:42:19;;;;;;;9.60;7.68;;;;;;;;;;12790777;23;20355;-85
2023/05/21 05:47:21;;;;;;;9.60;7.70;;;;;;;;;;12792083;23;20395;-86
2023/05/21 05:52:23;;;;;;;10.30;8.20;;;;;;;;;;12791845;23;20457;-86
2023/05/21 05:57:27;;;;;;;9.77;8.05;;;;;;;;;;12789199;23;20360;-86
2023/05/21 06:02:29;;;;;;;10.35;7.78;;;;;;;;;;12789726;23;20832;-85
2023/05/21 06:07:32;;;;;;;9.10;7.80;;;;;;;;;;12791052;23;20445;-85
2023/05/21 06:12:36;;;;;;;9.48;8.10;;;;;;;;;;12788426;23;20384;-86
2023/05/21 06:17:38;;;;;;;10.48;7.75;;;;;;;;;;12790310;23;20403;-86
2023/05/21 06:22:40;;;;;;;10.87;8.17;;;;;;;;;;12790971;23;20425;-86
2023/05/21 06:27:44;;;;;;;10.82;8.40;;;;;;;;;;12790966;23;20981;-86
2023/05/21 06:32:46;;;;;;;11.52;8.50;;;;;;;;;;12787692;23;20423;-86
2023/05/21 06:37:49;;;;;;;9.20;7.75;;;;;;;;;;12788241;23;20380;-86
2023/05/21 06:42:54;;;;;;;8.55;7.60;;;;;;;;;;12786138;23;20400;-87
2023/05/21 06:47:57;;;;;;;8.83;7.70;;;;;;;;;;12790349;23;20371;-86
2023/05/21 06:53:01;;;;;;;11.37;8.40;;;;;;;;;;12790953;23;20441;-86
2023/05/21 06:58:05;;;;;;;10.25;7.72;;;;;;;;;;12789021;23;20367;-86
2023/05/21 07:03:07;;;;;;;10.32;7.80;;;;;;;;;;12788010;23;20727;-86
2023/05/21 07:08:10;;;;;;;9.82;7.47;;;;;;;;;;12790351;23;20384;-86
2023/05/21 07:13:13;;;;;;;13.07;7.93;;;;;;;;;;12789549;23;20383;-86
2023/05/21 07:18:16;;;;;;;9.98;7.45;;;;;;;;;;12786526;23;20395;-84
2023/05/21 07:23:20;;;;;;;9.13;7.32;;;;;;;;;;12784202;23;20375;-85
2023/05/21 07:28:23;;;;;;;8.23;7.30;;;;;;;;;;12783751;23;20359;-86
2023/05/21 07:33:26;;;;;;;10.27;7.10;;;;;;;;;;12783656;23;21050;-87
2023/05/21 07:38:28;;;;;;;8.18;7.35;;;;;;;;;;12784207;23;20844;-86
2023/05/21 07:43:33;;;;;;;7.90;6.93;;;;;;;;;;12786349;23;20395;-86
2023/05/21 07:48:35;;;;;;;8.23;7.10;;;;;;;;;;12788552;23;20368;-85
2023/05/21 07:53:38;;;;;;;10.38;7.45;;;;;;;;;;12789258;23;20616;-87
2023/05/21 07:58:44;;;;;;;10.13;7.18;;;;;;;;;;12786214;23;20442;-87
2023/05/21 08:03:47;;;;;;;7.90;6.53;;;;;;;;;;12784453;23;20450;-87
2023/05/21 08:08:49;;;;;;;8.93;6.30;;;;;;;;;;12782794;23;20380;-88
2023/05/21 08:13:53;;;;;;;8.73;6.50;;;;;;;;;;12783967;23;20396;-87
2023/05/21 08:18:55;;;;;;;9.15;6.60;;;;;;;;;;12782967;23;20410;-87
2023/05/21 08:23:59;;;;;;;7.50;6.60;;;;;;;;;;12782564;23;20368;-87
2023/05/21 08:29:03;;;;;;;8.73;6.50;;;;;;;;;;12783987;23;20380;-87
2023/05/21 08:34:05;;;;;;;7.43;5.72;;;;;;;;;;12784780;23;20442;-88
2023/05/21 08:39:08;;;;;;;8.45;6.28;;;;;;;;;;12786377;23;20380;-87
2023/05/21 08:44:12;;;;;;;8.93;6.32;;;;;;;;;;12783753;23;20388;-87
2023/05/21 08:49:18;;;;;;;10.53;6.37;;;;;;;;;;12783980;23;20384;-87
2023/05/21 08:54:21;;;;;;;10.70;6.00;;;;;;;;;;12783742;23;20384;-87
2023/05/21 08:59:25;;;;;;;7.38;5.75;;;;;;;;;;12783712;23;20443;-88
2023/05/21 09:04:28;;;;;;;8.18;6.32;;;;;;;;;;12784604;23;20368;-87
2023/05/21 09:09:33;;;;;;;7.53;5.70;;;;;;;;;;12783908;23;20432;-87
2023/05/21 09:14:38;;;;;;;8.95;5.70;;;;;;;;;;12781241;23;20368;-87
2023/05/21 09:20:11;;;;;;;7.07;5.57;;;;;;;;;;12780614;23;20434;-87
2023/05/21 09:25:15;;;;;;;7.10;5.88;;;;;;;;;;12783029;23;20775;-87
2023/05/21 09:30:19;;;;;;;7.20;5.28;;;;;;;;;;12784064;23;20387;-88
2023/05/21 09:35:21;;;;;;;6.57;5.33;;;;;;;;;;12789124;23;20434;-86
2023/05/21 09:40:24;;;;;;;8.70;5.53;;;;;;;;;;12787896;23;20372;-87
2023/05/21 09:45:28;;;;;;;7.20;5.23;;;;;;;;;;12786978;23;20364;-85
2023/05/21 09:50:30;;;;;;;6.80;5.63;;;;;;;;;;12808763;23;20434;-88
2023/05/21 09:55:36;;;;;;;8.88;5.65;;;;;;;;;;12790227;23;20368;-87
2023/05/21 10:00:40;;;;;;;6.80;4.73;;;;;;;;;;12790447;23;20376;-87
2023/05/21 10:05:42;;;;;;;9.00;5.50;;;;;;;;;;12789450;23;20371;-87
2023/05/21 10:10:47;;;;;;;7.10;5.15;;;;;;;;;;12788896;23;20419;-87
2023/05/21 10:15:59;;;;;;;6.68;5.68;;;;;;;;;;12788328;23;20415;-87
2023/05/21 10:21:03;;;;;;;8.25;5.50;;;;;;;;;;12787305;23;20364;-88
2023/05/21 10:26:07;;;;;;;5.83;5.13;;;;;;;;;;12790153;23;20864;-88
2023/05/21 10:31:12;;;;;;;7.03;5.30;;;;;;;;;;12788328;23;20468;-88
2023/05/21 10:36:16;;;;;;;6.40;5.13;;;;;;;;;;12807194;23;20380;-88
2023/05/21 10:41:21;;;;;;;8.30;5.00;;;;;;;;;;12787463;23;20756;-88
2023/05/21 10:46:43;;;;;;;6.72;4.88;;;;;;;;;;12786311;23;20375;-87
2023/05/21 10:51:56;;;;;;;6.47;5.27;;;;;;;;;;12784137;23;20438;-88
2023/05/21 10:57:10;;;;;;;7.20;5.70;;;;;;;;;;12783674;23;20380;-88
2023/05/21 11:02:15;;;;;;;6.00;5.30;;;;;;;;;;12785783;23;20866;-88
2023/05/21 11:07:23;;;;;;;6.30;5.05;;;;;;;;;;12778490;23;20375;-86
2023/05/21 11:12:26;;;;;;;5.88;5.07;;;;;;;;;;12782592;23;20392;-87
2023/05/21 11:17:40;;;;;;;7.30;4.80;;;;;;;;;;12786086;23;20434;-87
2023/05/21 11:22:45;;;;;;;6.07;4.80;;;;;;;;;;12806513;23;20367;-87
2023/05/21 11:27:48;;;;;;;6.73;5.27;;;;;;;;;;12785804;23;20372;-88
2023/05/21 11:33:21;;;;;;;6.90;5.30;;;;;;;;;;12785650;23;20388;-87
2023/05/21 11:38:23;;;;;;;7.07;4.65;;;;;;;;;;12749947;23;20388;-87
2023/05/21 11:43:26;;;;;;;6.53;4.65;;;;;;;;;;12777537;23;20379;-88
2023/05/21 11:48:31;;;;;;;5.95;4.63;;;;;;;;;;12781259;23;20466;-89
2023/05/21 11:53:34;;;;;;;6.97;4.85;;;;;;;;;;12781545;23;20383;-88
2023/05/21 11:58:36;;;;;;;5.72;4.53;;;;;;;;;;12781854;23;20410;-88
2023/05/21 12:03:40;;;;;;;5.95;4.78;;;;;;;;;;12783635;23;20922;-88
2023/05/21 12:08:42;;;;;;;5.70;5.00;;;;;;;;;;12782769;23;20383;-88
2023/05/21 12:13:44;;;;;;;6.77;4.80;;;;;;;;;;12781949;23;20431;-88
2023/05/21 12:18:48;;;;;;;5.43;4.78;;;;;;;;;;12782179;23;20444;-88
2023/05/21 12:23:50;;;;;;;6.00;4.53;;;;;;;;;;12782810;23;20383;-88
2023/05/21 12:28:53;;;;;;;5.57;4.60;;;;;;;;;;12781228;23;20379;-88
2023/05/21 12:33:57;;;;;;;5.73;4.13;;;;;;;;;;12782036;23;20938;-87
2023/05/21 12:39:00;;;;;;;6.28;4.68;;;;;;;;;;12784379;23;20755;-88
2023/05/21 12:44:04;;;;;;;6.10;4.23;;;;;;;;;;12784224;23;20372;-86
2023/05/21 12:49:08;;;;;;;5.37;4.27;;;;;;;;;;12786167;23;20844;-88
2023/05/21 12:54:13;;;;;;;5.45;3.90;;;;;;;;;;12784607;23;20419;-88
2023/05/21 12:59:16;;;;;;;5.27;4.13;;;;;;;;;;12782226;23;20780;-88
2023/05/21 13:04:21;;;;;;;5.73;4.37;;;;;;;;;;12803443;23;20720;-87
2023/05/21 13:09:23;;;;;;;6.25;4.50;;;;;;;;;;12786712;23;20437;-87
2023/05/21 13:14:25;;;;;;;4.68;4.00;;;;;;;;;;12808751;23;20677;-88
2023/05/21 13:19:29;;;;;;;5.22;4.20;;;;;;;;;;12788371;23;20364;-89
2023/05/21 13:24:31;;;;;;;5.05;4.35;;;;;;;;;;12790606;23;20426;-88
2023/05/21 13:29:36;;;;;;;5.47;4.35;;;;;;;;;;12786999;23;20371;-88
2023/05/21 13:34:40;;;;;;;7.13;4.45;;;;;;;;;;12788811;23;20391;-88
2023/05/21 13:39:42;;;;;;;4.70;4.07;;;;;;;;;;12788470;23;20430;-88
2023/05/21 13:44:45;;;;;;;5.28;4.40;;;;;;;;;;12793737;23;20825;-88
2023/05/21 13:49:49;;;;;;;5.40;4.32;;;;;;;;;;12788504;23;20430;-88
2023/05/21 13:54:52;;;;;;;6.67;4.23;;;;;;;;;;12786886;23;20914;-88
2023/05/21 13:59:54;;;;;;;5.43;4.50;;;;;;;;;;12790777;23;20365;-87
2023/05/21 14:04:58;;;;;;;8.55;5.10;;;;;;;;;;12785913;23;20372;-88
2023/05/21 14:10:01;;;;;;;6.25;5.03;;;;;;;;;;12786706;23;20371;-88
2023/05/21 14:15:04;;;;;;;6.23;5.13;;;;;;;;;;12788310;23;20450;-89
2023/05/21 14:20:09;;;;;;;5.07;4.57;;;;;;;;;;12787694;23;20376;-88
2023/05/21 14:25:12;;;;;;;6.40;4.85;;;;;;;;;;12781197;23;20765;-87
2023/05/21 14:30:14;;;;;;;6.60;4.82;;;;;;;;;;12785092;23;20379;-88
2023/05/21 14:35:18;;;;;;;6.85;4.68;;;;;;;;;;12786789;23;20716;-87
2023/05/21 14:40:20;;;;;;;7.03;4.50;;;;;;;;;;12787696;23;20836;-88
2023/05/21 15:03:04;;;;;;;6.35;4.50;;;;;;;;;;12821759;23;20922;-88
2023/05/21 15:08:08;;;;;;;6.13;4.68;;;;;;;;;;12784227;23;20433;-88
2023/05/21 15:13:10;;;;;;;6.07;4.50;;;;;;;;;;12781067;23;20422;-87
2023/05/21 15:18:14;;;;;;;6.23;4.60;;;;;;;;;;12781805;23;20812;-88
2023/05/21 15:23:17;;;;;;;5.57;4.60;;;;;;;;;;12782425;23;20442;-88
2023/05/21 15:28:19;;;;;;;5.60;4.82;;;;;;;;;;12782138;23;20372;-88
2023/05/21 15:33:23;;;;;;;7.00;5.00;;;;;;;;;;12801090;23;20383;-85
2023/05/21 15:38:25;;;;;;;6.83;4.63;;;;;;;;;;12779862;23;20426;-85
2023/05/21 15:43:28;;;;;;;7.60;4.97;;;;;;;;;;12778724;23;20372;-85
2023/05/21 15:48:31;;;;;;;5.88;4.88;;;;;;;;;;12779285;23;20453;-85
2023/05/21 15:53:34;;;;;;;5.90;4.80;;;;;;;;;;12779716;23;20933;-86
2023/05/21 15:58:36;;;;;;;5.50;4.30;;;;;;;;;;12779813;23;20368;-84
2023/05/21 16:03:40;;;;;;;5.78;4.78;;;;;;;;;;12780596;23;20449;-85
2023/05/21 16:08:42;;;;;;;8.07;4.75;;;;;;;;;;12802354;23;20976;-85
2023/05/21 16:13:44;;;;;;;6.68;5.13;;;;;;;;;;12783268;23;20387;-86
2023/05/21 16:18:48;;;;;;;5.97;4.85;;;;;;;;;;12779398;23;20371;-82
2023/05/21 16:23:50;;;;;;;6.30;5.00;;;;;;;;;;12783429;23;20371;-83
2023/05/21 16:28:53;;;;;;;9.60;5.50;;;;;;;;;;12782768;23;20371;-81
2023/05/21 16:33:57;;;;;;;7.00;4.93;;;;;;;;;;12785119;23;20478;-82
2023/05/21 16:38:59;;;;;;;20.58;7.63;;;;;;;;;;12784531;23;20407;-86
2023/05/21 16:44:02;;;;;;;6.00;5.25;;;;;;;;;;12785380;23;20375;-86
2023/05/21 16:49:05;;;;;;;6.30;4.68;;;;;;;;;;12781684;23;20906;-86
2023/05/21 16:54:08;;;;;;;6.85;5.07;;;;;;;;;;12785225;23;20391;-86
2023/05/21 16:59:10;;;;;;;7.20;4.93;;;;;;;;;;12785249;23;20368;-81
2023/05/21 17:04:14;;;;;;;5.93;4.82;;;;;;;;;;12780954;23;20501;-85
2023/05/21 17:09:16;;;;;;;5.30;4.80;;;;;;;;;;12779263;23;20368;-84
2023/05/21 17:14:18;;;;;;;7.18;5.05;;;;;;;;;;12780174;23;20531;-84
2023/05/21 17:19:22;;;;;;;6.00;4.70;;;;;;;;;;12782903;23;20422;-84
2023/05/21 17:24:24;;;;;;;7.10;5.00;;;;;;;;;;12783249;23;20372;-83
2023/05/21 17:29:26;;;;;;;6.03;4.75;;;;;;;;;;12786639;23;20430;-82
2023/05/21 17:34:30;;;;;;;7.05;5.05;;;;;;;;;;12786324;23;20844;-88
2023/05/21 17:39:32;;;;;;;7.40;5.27;;;;;;;;;;12786852;23;20760;-88
2023/05/21 17:44:35;;;;;;;7.40;5.30;;;;;;;;;;12785947;23;20469;-88
2023/05/21 17:49:38;;;;;;;6.00;4.70;;;;;;;;;;12780915;23;20364;-89
2023/05/21 17:54:41;;;;;;;7.35;5.10;;;;;;;;;;12788359;23;20899;-89
2023/05/21 17:59:44;;;;;;;5.72;4.85;;;;;;;;;;12787551;23;20371;-88
2023/05/21 18:04:48;;;;;;;10.75;7.82;;;;;;;;;;12788898;23;20372;-88
2023/05/21 18:09:50;;;;;;;6.57;5.30;;;;;;;;;;12790284;23;20436;-88
2023/05/21 18:14:52;;;;;;;6.83;5.37;;;;;;;;;;12791889;23;20497;-88
2023/05/21 18:19:56;;;;;;;7.57;5.17;;;;;;;;;;12791383;23;20363;-89
2023/05/21 18:24:58;;;;;;;7.07;5.60;;;;;;;;;;12812517;23;20376;-89
2023/05/21 18:30:02;;;;;;;7.25;5.72;;;;;;;;;;12792152;23;20372;-89
2023/05/21 18:35:06;;;;;;;8.73;5.70;;;;;;;;;;12791967;23;20388;-88
2023/05/21 18:40:10;;;;;;;7.63;5.88;;;;;;;;;;12790118;23;20372;-89
2023/05/21 18:45:13;;;;;;;6.88;5.10;;;;;;;;;;12795294;23;20363;-89
2023/05/21 18:50:18;;;;;;;8.43;5.72;;;;;;;;;;12791676;23;20368;-89
2023/05/21 18:55:20;;;;;;;9.02;6.00;;;;;;;;;;12764981;23;20418;-88
2023/05/21 19:00:23;;;;;;;8.43;5.88;;;;;;;;;;12791266;23;20426;-89
2023/05/21 19:05:27;;;;;;;7.63;5.82;;;;;;;;;;12790768;23;20430;-89
2023/05/21 19:10:31;;;;;;;8.50;6.03;;;;;;;;;;12790395;23;20438;-90
2023/05/21 19:15:33;;;;;;;7.50;6.20;;;;;;;;;;12791305;23;20852;-88
2023/05/21 19:20:37;;;;;;;9.73;5.88;;;;;;;;;;12790746;23;20447;-88
2023/05/21 19:25:39;;;;;;;7.77;6.13;;;;;;;;;;12791813;23;20426;-88
2023/05/21 19:30:41;;;;;;;8.02;6.43;;;;;;;;;;12790587;23;20363;-89
2023/05/21 19:35:46;;;;;;;7.45;6.20;;;;;;;;;;12789484;23;20391;-88
2023/05/21 19:40:49;;;;;;;9.97;6.73;;;;;;;;;;12791171;23;20372;-87
2023/05/21 19:45:51;;;;;;;8.57;6.53;;;;;;;;;;12798810;23;20387;-88
2023/05/21 19:50:55;;;;;;;8.80;6.70;;;;;;;;;;12796101;23;20364;-88
2023/05/21 19:55:58;;;;;;;8.63;6.70;;;;;;;;;;12814920;23;20720;-88
2023/05/21 20:01:02;;;;;;;8.40;6.82;;;;;;;;;;12794695;23;20379;-88
2023/05/21 20:06:06;;;;;;;8.85;7.10;;;;;;;;;;12794078;23;20426;-88
2023/05/21 20:11:08;;;;;;;10.70;7.50;;;;;;;;;;12793319;23;20383;-87
2023/05/21 20:16:11;;;;;;;11.60;7.90;;;;;;;;;;12791226;23;20422;-85
2023/05/21 20:21:16;;;;;;;10.77;7.68;;;;;;;;;;12789108;23;20423;-84
2023/05/21 20:26:18;;;;;;;10.07;8.07;;;;;;;;;;12810784;23;20426;-86
2023/05/21 20:31:21;;;;;;;12.23;8.98;;;;;;;;;;12780704;23;20434;-87
2023/05/21 20:36:25;;;;;;;11.38;8.57;;;;;;;;;;12781000;23;20450;-87
2023/05/21 20:41:34;;;;;;;11.68;9.05;;;;;;;;;;12782340;23;20387;-87
2023/05/21 20:46:39;;;;;;;11.77;8.83;;;;;;;;;;12795439;23;20375;-86
2023/05/21 20:51:43;;;;;;;11.88;8.90;;;;;;;;;;12780882;23;20847;-86
2023/05/21 20:56:46;;;;;;;10.60;8.43;;;;;;;;;;12787051;23;20380;-86
2023/05/21 21:01:49;;;;;;;9.65;7.97;;;;;;;;;;12782518;23;20371;-87
2023/05/21 21:06:54;;;;;;;11.60;8.00;;;;;;;;;;12783107;23;20368;-87
2023/05/21 21:11:59;;;;;;;11.40;8.30;;;;;;;;;;12782519;23;20372;-86
2023/05/21 21:17:01;;;;;;;12.18;8.70;;;;;;;;;;12779658;23;20840;-86
2023/05/21 21:22:05;;;;;;;11.10;8.07;;;;;;;;;;12776503;23;20903;-86
2023/05/21 21:27:08;;;;;;;10.55;7.90;;;;;;;;;;12778280;23;20433;-86
2023/05/21 21:32:10;;;;;;;9.07;7.38;;;;;;;;;;12780596;23;20380;-87
2023/05/21 21:37:14;;;;;;;11.10;7.63;;;;;;;;;;12779599;23;20458;-86
2023/05/21 21:42:16;;;;;;;10.00;7.37;;;;;;;;;;12780337;23;20465;-86
2023/05/21 21:47:19;;;;;;;8.93;6.95;;;;;;;;;;12780977;23;20380;-87
2023/05/21 21:52:26;;;;;;;8.20;6.63;;;;;;;;;;12780239;23;20403;-86
2023/05/21 21:57:28;;;;;;;9.43;6.77;;;;;;;;;;12780881;23;20462;-86
2023/05/21 22:02:31;;;;;;;6.60;5.80;;;;;;;;;;12786903;23;20886;-86
2023/05/21 22:07:37;;;;;;;8.07;5.87;;;;;;;;;;12781300;23;20918;-87
2023/05/21 22:12:40;;;;;;;6.13;5.53;;;;;;;;;;12783774;23;20791;-86
2023/05/21 22:17:42;;;;;;;9.20;6.17;;;;;;;;;;12787303;23;20740;-86
2023/05/21 22:22:46;;;;;;;8.45;6.22;;;;;;;;;;12783877;23;20391;-86
2023/05/21 22:27:49;;;;;;;7.25;5.95;;;;;;;;;;12788648;23;20371;-87
2023/05/21 22:32:51;;;;;;;7.97;5.93;;;;;;;;;;12788749;23;20488;-86
2023/05/21 22:37:55;;;;;;;6.88;5.93;;;;;;;;;;12788477;23;20405;-86
2023/05/21 22:42:57;;;;;;;7.10;6.30;;;;;;;;;;12788286;23;20403;-86
2023/05/21 22:48:06;;;;;;;8.35;6.43;;;;;;;;;;12788539;23;20372;-86
2023/05/21 22:53:09;;;;;;;10.30;6.27;;;;;;;;;;12788349;23;20422;-86
2023/05/21 22:58:12;;;;;;;9.37;6.50;;;;;;;;;;12790973;23;20415;-87
2023/05/21 23:03:15;;;;;;;7.88;6.00;;;;;;;;;;12789646;23;20442;-86
2023/05/21 23:08:19;;;;;;;9.10;6.40;;;;;;;;;;12792958;23;20367;-87
2023/05/21 23:13:21;;;;;;;8.53;5.93;;;;;;;;;;12789878;23;20383;-86
2023/05/21 23:18:23;;;;;;;8.25;6.25;;;;;;;;;;12789335;23;20367;-86
2023/05/21 23:23:27;;;;;;;8.65;6.10;;;;;;;;;;12786983;23;20364;-86
2023/05/21 23:28:29;;;;;;;7.55;6.35;;;;;;;;;;12786898;23;20364;-87
2023/05/21 23:33:32;;;;;;;7.20;5.90;;;;;;;;;;12789645;23;20454;-87
2023/05/21 23:38:36;;;;;;;7.30;6.10;;;;;;;;;;12746043;23;20869;-86
2023/05/21 23:43:38;;;;;;;9.03;6.37;;;;;;;;;;12725937;23;20365;-86
2023/05/21 23:48:40;;;;;;;9.13;6.07;;;;;;;;;;12728699;23;20374;-87
2023/05/21 23:53:44;;;;;;;9.65;5.82;;;;;;;;;;12729309;23;20448;-87
2023/05/21 23:58:47;;;;;;;7.22;6.07;;;;;;;;;;12728154;23;20377;-86
